sensor_id;sensor_type;location;lat;lon;timestamp;P1;durP1;ratioP1;P2;durP2;ratioP2
36061;SDS011;22123;52.412;20.970;2023-03-22T00:00:54;10.45;;;5.63;;
36061;SDS011;22123;52.412;20.970;2023-03-22T00:03:21;11.38;;;5.63;;
36061;SDS011;22123;52.412;20.970;2023-03-22T00:05:48;4.38;;;2.85;;
36061;SDS011;22123;52.412;20.970;2023-03-22T00:08:14;8.05;;;4.25;;
36061;SDS011;22123;52.412;20.970;2023-03-22T00:10:41;4.05;;;3.65;;
36061;SDS011;22123;52.412;20.970;2023-03-22T00:13:08;3.75;;;3.20;;
36061;SDS011;22123;52.412;20.970;2023-03-22T00:15:34;10.77;;;4.30;;
36061;SDS011;22123;52.412;20.970;2023-03-22T00:18:01;5.78;;;3.20;;
36061;SDS011;22123;52.412;20.970;2023-03-22T00:20:29;4.32;;;3.97;;
36061;SDS011;22123;52.412;20.970;2023-03-22T00:22:56;7.05;;;3.60;;
36061;SDS011;22123;52.412;20.970;2023-03-22T00:25:22;3.47;;;2.55;;
36061;SDS011;22123;52.412;20.970;2023-03-22T00:27:48;15.82;;;4.45;;
36061;SDS011;22123;52.412;20.970;2023-03-22T00:30:13;9.75;;;3.60;;
36061;SDS011;22123;52.412;20.970;2023-03-22T00:32:39;13.60;;;4.95;;
36061;SDS011;22123;52.412;20.970;2023-03-22T00:35:06;3.17;;;2.55;;
36061;SDS011;22123;52.412;20.970;2023-03-22T00:37:32;4.22;;;3.50;;
36061;SDS011;22123;52.412;20.970;2023-03-22T00:40:01;1.83;;;1.73;;
36061;SDS011;22123;52.412;20.970;2023-03-22T00:42:28;8.85;;;6.22;;
36061;SDS011;22123;52.412;20.970;2023-03-22T00:44:53;7.30;;;4.28;;
36061;SDS011;22123;52.412;20.970;2023-03-22T00:47:19;4.25;;;3.53;;
36061;SDS011;22123;52.412;20.970;2023-03-22T00:49:45;11.30;;;4.85;;
36061;SDS011;22123;52.412;20.970;2023-03-22T00:52:11;4.82;;;3.17;;
36061;SDS011;22123;52.412;20.970;2023-03-22T00:54:37;6.40;;;4.03;;
36061;SDS011;22123;52.412;20.970;2023-03-22T00:57:03;3.60;;;3.25;;
36061;SDS011;22123;52.412;20.970;2023-03-22T00:59:29;7.75;;;3.92;;
36061;SDS011;22123;52.412;20.970;2023-03-22T01:01:55;9.23;;;5.90;;
36061;SDS011;22123;52.412;20.970;2023-03-22T01:04:21;9.65;;;5.60;;
36061;SDS011;22123;52.412;20.970;2023-03-22T01:06:46;3.55;;;2.63;;
36061;SDS011;22123;52.412;20.970;2023-03-22T01:09:12;8.25;;;5.13;;
36061;SDS011;22123;52.412;20.970;2023-03-22T01:11:38;6.55;;;5.30;;
36061;SDS011;22123;52.412;20.970;2023-03-22T01:14:05;2.97;;;2.72;;
36061;SDS011;22123;52.412;20.970;2023-03-22T01:16:31;15.13;;;4.97;;
36061;SDS011;22123;52.412;20.970;2023-03-22T01:18:56;5.07;;;4.05;;
36061;SDS011;22123;52.412;20.970;2023-03-22T01:21:22;16.02;;;5.15;;
36061;SDS011;22123;52.412;20.970;2023-03-22T01:23:48;9.15;;;4.03;;
36061;SDS011;22123;52.412;20.970;2023-03-22T01:26:14;17.23;;;6.05;;
36061;SDS011;22123;52.412;20.970;2023-03-22T01:28:40;4.65;;;3.47;;
36061;SDS011;22123;52.412;20.970;2023-03-22T01:31:06;10.32;;;5.80;;
36061;SDS011;22123;52.412;20.970;2023-03-22T01:33:32;13.32;;;4.90;;
36061;SDS011;22123;52.412;20.970;2023-03-22T01:35:57;9.50;;;5.38;;
36061;SDS011;22123;52.412;20.970;2023-03-22T01:38:23;5.90;;;4.15;;
36061;SDS011;22123;52.412;20.970;2023-03-22T01:40:49;13.15;;;5.28;;
36061;SDS011;22123;52.412;20.970;2023-03-22T01:43:15;8.45;;;4.30;;
36061;SDS011;22123;52.412;20.970;2023-03-22T01:45:43;16.48;;;5.00;;
36061;SDS011;22123;52.412;20.970;2023-03-22T01:48:16;13.83;;;5.30;;
36061;SDS011;22123;52.412;20.970;2023-03-22T01:50:47;5.47;;;4.90;;
36061;SDS011;22123;52.412;20.970;2023-03-22T01:53:38;12.10;;;5.53;;
36061;SDS011;22123;52.412;20.970;2023-03-22T01:56:12;8.95;;;4.43;;
36061;SDS011;22123;52.412;20.970;2023-03-22T01:58:39;18.60;;;6.30;;
36061;SDS011;22123;52.412;20.970;2023-03-22T02:01:06;6.13;;;4.60;;
36061;SDS011;22123;52.412;20.970;2023-03-22T02:03:36;6.68;;;4.03;;
36061;SDS011;22123;52.412;20.970;2023-03-22T02:06:21;9.02;;;4.63;;
36061;SDS011;22123;52.412;20.970;2023-03-22T02:08:48;13.95;;;5.90;;
36061;SDS011;22123;52.412;20.970;2023-03-22T02:11:15;9.80;;;4.80;;
36061;SDS011;22123;52.412;20.970;2023-03-22T02:16:39;3.63;;;3.10;;
36061;SDS011;22123;52.412;20.970;2023-03-22T02:27:38;20.15;;;4.18;;
36061;SDS011;22123;52.412;20.970;2023-03-22T02:33:12;6.60;;;5.68;;
36061;SDS011;22123;52.412;20.970;2023-03-22T02:41:08;11.43;;;4.18;;
36061;SDS011;22123;52.412;20.970;2023-03-22T02:44:24;16.38;;;5.40;;
36061;SDS011;22123;52.412;20.970;2023-03-22T02:47:02;8.05;;;4.70;;
36061;SDS011;22123;52.412;20.970;2023-03-22T02:54:44;6.53;;;4.63;;
36061;SDS011;22123;52.412;20.970;2023-03-22T02:57:35;7.80;;;5.78;;
36061;SDS011;22123;52.412;20.970;2023-03-22T03:00:07;4.50;;;4.07;;
36061;SDS011;22123;52.412;20.970;2023-03-22T03:02:34;27.95;;;6.28;;
36061;SDS011;22123;52.412;20.970;2023-03-22T03:05:02;6.63;;;5.28;;
36061;SDS011;22123;52.412;20.970;2023-03-22T03:07:28;10.50;;;4.75;;
36061;SDS011;22123;52.412;20.970;2023-03-22T03:09:55;11.15;;;4.25;;
36061;SDS011;22123;52.412;20.970;2023-03-22T03:12:24;12.70;;;6.22;;
36061;SDS011;22123;52.412;20.970;2023-03-22T03:14:51;11.70;;;4.53;;
36061;SDS011;22123;52.412;20.970;2023-03-22T03:17:21;5.22;;;4.10;;
36061;SDS011;22123;52.412;20.970;2023-03-22T03:19:58;2.40;;;2.20;;
36061;SDS011;22123;52.412;20.970;2023-03-22T03:33:32;6.35;;;3.67;;
36061;SDS011;22123;52.412;20.970;2023-03-22T03:36:02;3.80;;;1.88;;
36061;SDS011;22123;52.412;20.970;2023-03-22T03:38:35;7.85;;;5.65;;
36061;SDS011;22123;52.412;20.970;2023-03-22T03:41:05;8.95;;;5.47;;
36061;SDS011;22123;52.412;20.970;2023-03-22T03:43:36;9.73;;;3.17;;
36061;SDS011;22123;52.412;20.970;2023-03-22T03:46:04;4.32;;;3.92;;
36061;SDS011;22123;52.412;20.970;2023-03-22T03:48:32;17.40;;;8.73;;
36061;SDS011;22123;52.412;20.970;2023-03-22T03:51:00;4.20;;;3.83;;
36061;SDS011;22123;52.412;20.970;2023-03-22T03:53:27;9.98;;;5.18;;
36061;SDS011;22123;52.412;20.970;2023-03-22T03:55:54;5.07;;;4.35;;
36061;SDS011;22123;52.412;20.970;2023-03-22T03:58:20;5.13;;;4.25;;
36061;SDS011;22123;52.412;20.970;2023-03-22T04:00:46;7.38;;;4.18;;
36061;SDS011;22123;52.412;20.970;2023-03-22T04:03:13;6.50;;;5.85;;
36061;SDS011;22123;52.412;20.970;2023-03-22T04:05:39;13.07;;;2.88;;
36061;SDS011;22123;52.412;20.970;2023-03-22T04:08:06;7.88;;;4.65;;
36061;SDS011;22123;52.412;20.970;2023-03-22T04:10:32;4.93;;;4.32;;
36061;SDS011;22123;52.412;20.970;2023-03-22T04:12:58;9.00;;;6.20;;
36061;SDS011;22123;52.412;20.970;2023-03-22T04:15:24;8.25;;;5.00;;
36061;SDS011;22123;52.412;20.970;2023-03-22T04:17:50;2.72;;;2.53;;
36061;SDS011;22123;52.412;20.970;2023-03-22T04:20:16;6.10;;;4.45;;
36061;SDS011;22123;52.412;20.970;2023-03-22T04:22:42;5.68;;;4.03;;
36061;SDS011;22123;52.412;20.970;2023-03-22T04:25:09;3.40;;;3.13;;
36061;SDS011;22123;52.412;20.970;2023-03-22T04:27:37;6.15;;;4.60;;
36061;SDS011;22123;52.412;20.970;2023-03-22T04:30:05;8.32;;;5.70;;
36061;SDS011;22123;52.412;20.970;2023-03-22T04:32:33;5.15;;;4.28;;
36061;SDS011;22123;52.412;20.970;2023-03-22T04:34:59;12.20;;;4.70;;
36061;SDS011;22123;52.412;20.970;2023-03-22T04:37:25;4.47;;;4.07;;
36061;SDS011;22123;52.412;20.970;2023-03-22T04:39:51;6.38;;;4.07;;
36061;SDS011;22123;52.412;20.970;2023-03-22T04:42:18;3.60;;;3.28;;
36061;SDS011;22123;52.412;20.970;2023-03-22T04:44:44;3.17;;;2.88;;
36061;SDS011;22123;52.412;20.970;2023-03-22T04:47:10;14.13;;;7.18;;
36061;SDS011;22123;52.412;20.970;2023-03-22T04:49:36;6.88;;;4.38;;
36061;SDS011;22123;52.412;20.970;2023-03-22T04:52:02;7.10;;;4.78;;
36061;SDS011;22123;52.412;20.970;2023-03-22T04:54:28;8.90;;;5.53;;
36061;SDS011;22123;52.412;20.970;2023-03-22T04:56:54;8.77;;;5.60;;
36061;SDS011;22123;52.412;20.970;2023-03-22T04:59:20;9.85;;;5.80;;
36061;SDS011;22123;52.412;20.970;2023-03-22T05:01:46;5.85;;;5.32;;
36061;SDS011;22123;52.412;20.970;2023-03-22T05:04:13;3.22;;;2.72;;
36061;SDS011;22123;52.412;20.970;2023-03-22T05:06:39;4.88;;;3.25;;
36061;SDS011;22123;52.412;20.970;2023-03-22T05:09:05;2.53;;;2.13;;
36061;SDS011;22123;52.412;20.970;2023-03-22T05:11:31;9.63;;;4.82;;
36061;SDS011;22123;52.412;20.970;2023-03-22T05:13:57;3.67;;;1.50;;
36061;SDS011;22123;52.412;20.970;2023-03-22T05:16:23;3.90;;;3.03;;
36061;SDS011;22123;52.412;20.970;2023-03-22T05:18:50;3.17;;;2.90;;
36061;SDS011;22123;52.412;20.970;2023-03-22T05:21:16;5.43;;;4.18;;
36061;SDS011;22123;52.412;20.970;2023-03-22T05:23:43;25.55;;;7.00;;
36061;SDS011;22123;52.412;20.970;2023-03-22T05:26:10;4.68;;;3.63;;
36061;SDS011;22123;52.412;20.970;2023-03-22T05:28:36;5.93;;;3.60;;
36061;SDS011;22123;52.412;20.970;2023-03-22T05:31:03;5.70;;;2.88;;
36061;SDS011;22123;52.412;20.970;2023-03-22T05:33:29;8.48;;;4.93;;
36061;SDS011;22123;52.412;20.970;2023-03-22T05:35:54;2.30;;;2.10;;
36061;SDS011;22123;52.412;20.970;2023-03-22T05:38:20;7.68;;;5.95;;
36061;SDS011;22123;52.412;20.970;2023-03-22T05:40:46;3.15;;;1.70;;
36061;SDS011;22123;52.412;20.970;2023-03-22T05:43:12;10.95;;;7.28;;
36061;SDS011;22123;52.412;20.970;2023-03-22T05:45:39;9.30;;;4.93;;
36061;SDS011;22123;52.412;20.970;2023-03-22T05:48:05;11.02;;;5.32;;
36061;SDS011;22123;52.412;20.970;2023-03-22T05:50:32;5.25;;;3.85;;
36061;SDS011;22123;52.412;20.970;2023-03-22T05:52:58;3.20;;;2.65;;
36061;SDS011;22123;52.412;20.970;2023-03-22T05:55:24;16.75;;;5.25;;
36061;SDS011;22123;52.412;20.970;2023-03-22T05:57:50;10.25;;;4.35;;
36061;SDS011;22123;52.412;20.970;2023-03-22T06:00:16;6.40;;;4.00;;
36061;SDS011;22123;52.412;20.970;2023-03-22T06:02:44;10.30;;;4.25;;
36061;SDS011;22123;52.412;20.970;2023-03-22T06:05:12;4.55;;;3.03;;
36061;SDS011;22123;52.412;20.970;2023-03-22T06:07:39;4.03;;;3.15;;
36061;SDS011;22123;52.412;20.970;2023-03-22T06:10:07;1.95;;;1.85;;
36061;SDS011;22123;52.412;20.970;2023-03-22T06:12:35;5.18;;;3.75;;
36061;SDS011;22123;52.412;20.970;2023-03-22T06:15:01;6.80;;;3.28;;
36061;SDS011;22123;52.412;20.970;2023-03-22T06:17:27;6.95;;;3.10;;
36061;SDS011;22123;52.412;20.970;2023-03-22T06:19:53;5.40;;;2.88;;
36061;SDS011;22123;52.412;20.970;2023-03-22T06:22:19;7.10;;;3.08;;
36061;SDS011;22123;52.412;20.970;2023-03-22T06:24:46;7.18;;;4.20;;
36061;SDS011;22123;52.412;20.970;2023-03-22T06:27:12;4.40;;;3.97;;
36061;SDS011;22123;52.412;20.970;2023-03-22T06:29:38;7.13;;;3.10;;
36061;SDS011;22123;52.412;20.970;2023-03-22T06:32:04;8.93;;;3.33;;
36061;SDS011;22123;52.412;20.970;2023-03-22T06:34:31;7.90;;;4.57;;
36061;SDS011;22123;52.412;20.970;2023-03-22T06:36:57;6.05;;;4.20;;
36061;SDS011;22123;52.412;20.970;2023-03-22T06:39:23;4.28;;;2.72;;
36061;SDS011;22123;52.412;20.970;2023-03-22T06:41:50;5.15;;;3.63;;
36061;SDS011;22123;52.412;20.970;2023-03-22T06:44:16;6.65;;;3.25;;
36061;SDS011;22123;52.412;20.970;2023-03-22T06:46:42;15.82;;;7.60;;
36061;SDS011;22123;52.412;20.970;2023-03-22T06:49:08;10.85;;;5.85;;
36061;SDS011;22123;52.412;20.970;2023-03-22T06:51:34;5.68;;;3.63;;
36061;SDS011;22123;52.412;20.970;2023-03-22T06:53:59;6.70;;;3.47;;
36061;SDS011;22123;52.412;20.970;2023-03-22T06:56:25;5.70;;;3.00;;
36061;SDS011;22123;52.412;20.970;2023-03-22T06:58:51;3.15;;;2.70;;
36061;SDS011;22123;52.412;20.970;2023-03-22T07:01:17;5.85;;;4.00;;
36061;SDS011;22123;52.412;20.970;2023-03-22T07:03:43;11.48;;;5.68;;
36061;SDS011;22123;52.412;20.970;2023-03-22T07:06:09;9.05;;;5.82;;
36061;SDS011;22123;52.412;20.970;2023-03-22T07:08:36;11.77;;;5.15;;
36061;SDS011;22123;52.412;20.970;2023-03-22T07:11:03;5.22;;;3.72;;
36061;SDS011;22123;52.412;20.970;2023-03-22T07:13:29;13.48;;;4.15;;
36061;SDS011;22123;52.412;20.970;2023-03-22T07:15:55;8.95;;;5.10;;
36061;SDS011;22123;52.412;20.970;2023-03-22T07:18:23;5.63;;;3.40;;
36061;SDS011;22123;52.412;20.970;2023-03-22T07:20:49;6.15;;;3.50;;
36061;SDS011;22123;52.412;20.970;2023-03-22T07:23:15;9.07;;;5.13;;
36061;SDS011;22123;52.412;20.970;2023-03-22T07:25:42;7.30;;;4.68;;
36061;SDS011;22123;52.412;20.970;2023-03-22T07:28:08;7.43;;;4.35;;
36061;SDS011;22123;52.412;20.970;2023-03-22T07:30:34;14.73;;;4.60;;
36061;SDS011;22123;52.412;20.970;2023-03-22T07:33:00;6.40;;;3.63;;
36061;SDS011;22123;52.412;20.970;2023-03-22T07:35:26;12.85;;;4.72;;
36061;SDS011;22123;52.412;20.970;2023-03-22T07:37:52;7.82;;;3.38;;
36061;SDS011;22123;52.412;20.970;2023-03-22T07:40:18;7.70;;;4.32;;
36061;SDS011;22123;52.412;20.970;2023-03-22T07:42:46;6.10;;;3.08;;
36061;SDS011;22123;52.412;20.970;2023-03-22T07:45:12;14.05;;;3.60;;
36061;SDS011;22123;52.412;20.970;2023-03-22T07:47:38;3.50;;;2.75;;
36061;SDS011;22123;52.412;20.970;2023-03-22T07:50:04;5.47;;;2.88;;
36061;SDS011;22123;52.412;20.970;2023-03-22T07:52:31;4.82;;;2.35;;
36061;SDS011;22123;52.412;20.970;2023-03-22T07:54:56;4.72;;;2.53;;
36061;SDS011;22123;52.412;20.970;2023-03-22T07:57:22;3.67;;;2.05;;
36061;SDS011;22123;52.412;20.970;2023-03-22T07:59:48;4.90;;;2.13;;
36061;SDS011;22123;52.412;20.970;2023-03-22T08:02:14;5.40;;;2.30;;
36061;SDS011;22123;52.412;20.970;2023-03-22T08:04:40;6.28;;;2.75;;
36061;SDS011;22123;52.412;20.970;2023-03-22T08:07:06;5.38;;;2.67;;
36061;SDS011;22123;52.412;20.970;2023-03-22T08:09:32;3.97;;;1.85;;
36061;SDS011;22123;52.412;20.970;2023-03-22T08:11:58;2.83;;;2.33;;
36061;SDS011;22123;52.412;20.970;2023-03-22T08:14:23;8.85;;;3.53;;
36061;SDS011;22123;52.412;20.970;2023-03-22T08:16:49;4.38;;;2.25;;
36061;SDS011;22123;52.412;20.970;2023-03-22T08:19:15;8.18;;;4.10;;
36061;SDS011;22123;52.412;20.970;2023-03-22T08:21:41;5.05;;;2.65;;
36061;SDS011;22123;52.412;20.970;2023-03-22T08:24:07;3.55;;;2.67;;
36061;SDS011;22123;52.412;20.970;2023-03-22T08:26:33;5.68;;;2.92;;
36061;SDS011;22123;52.412;20.970;2023-03-22T08:28:59;7.20;;;2.83;;
36061;SDS011;22123;52.412;20.970;2023-03-22T08:31:25;5.68;;;2.95;;
36061;SDS011;22123;52.412;20.970;2023-03-22T08:33:51;7.07;;;2.72;;
36061;SDS011;22123;52.412;20.970;2023-03-22T08:36:18;2.35;;;1.77;;
36061;SDS011;22123;52.412;20.970;2023-03-22T08:38:45;3.17;;;1.85;;
36061;SDS011;22123;52.412;20.970;2023-03-22T08:41:11;4.57;;;2.40;;
36061;SDS011;22123;52.412;20.970;2023-03-22T08:43:37;4.93;;;2.65;;
36061;SDS011;22123;52.412;20.970;2023-03-22T08:46:03;4.18;;;2.40;;
36061;SDS011;22123;52.412;20.970;2023-03-22T08:48:29;2.95;;;1.98;;
36061;SDS011;22123;52.412;20.970;2023-03-22T08:50:56;3.92;;;2.00;;
36061;SDS011;22123;52.412;20.970;2023-03-22T08:53:22;4.18;;;2.63;;
36061;SDS011;22123;52.412;20.970;2023-03-22T08:55:48;3.70;;;2.50;;
36061;SDS011;22123;52.412;20.970;2023-03-22T08:58:14;4.10;;;2.10;;
36061;SDS011;22123;52.412;20.970;2023-03-22T09:00:41;4.85;;;2.45;;
36061;SDS011;22123;52.412;20.970;2023-03-22T09:03:07;3.88;;;2.13;;
36061;SDS011;22123;52.412;20.970;2023-03-22T09:05:33;3.92;;;1.60;;
36061;SDS011;22123;52.412;20.970;2023-03-22T09:07:59;7.07;;;2.65;;
36061;SDS011;22123;52.412;20.970;2023-03-22T09:10:25;3.92;;;2.15;;
36061;SDS011;22123;52.412;20.970;2023-03-22T09:12:51;4.90;;;2.85;;
36061;SDS011;22123;52.412;20.970;2023-03-22T09:15:17;8.60;;;2.53;;
36061;SDS011;22123;52.412;20.970;2023-03-22T09:17:43;5.03;;;2.05;;
36061;SDS011;22123;52.412;20.970;2023-03-22T09:20:09;5.40;;;2.60;;
36061;SDS011;22123;52.412;20.970;2023-03-22T09:22:35;2.97;;;2.15;;
36061;SDS011;22123;52.412;20.970;2023-03-22T09:25:01;5.05;;;3.10;;
36061;SDS011;22123;52.412;20.970;2023-03-22T09:27:27;4.60;;;2.10;;
36061;SDS011;22123;52.412;20.970;2023-03-22T09:29:52;4.35;;;2.47;;
36061;SDS011;22123;52.412;20.970;2023-03-22T09:32:18;3.40;;;1.88;;
36061;SDS011;22123;52.412;20.970;2023-03-22T09:34:44;3.00;;;1.98;;
36061;SDS011;22123;52.412;20.970;2023-03-22T09:37:10;4.28;;;2.03;;
36061;SDS011;22123;52.412;20.970;2023-03-22T09:39:36;3.92;;;2.33;;
36061;SDS011;22123;52.412;20.970;2023-03-22T09:42:03;3.95;;;2.28;;
36061;SDS011;22123;52.412;20.970;2023-03-22T09:44:42;6.10;;;3.50;;
36061;SDS011;22123;52.412;20.970;2023-03-22T09:47:14;3.90;;;2.22;;
36061;SDS011;22123;52.412;20.970;2023-03-22T09:49:44;3.90;;;2.63;;
36061;SDS011;22123;52.412;20.970;2023-03-22T09:52:14;7.00;;;2.40;;
36061;SDS011;22123;52.412;20.970;2023-03-22T09:54:41;1.73;;;1.50;;
36061;SDS011;22123;52.412;20.970;2023-03-22T09:59:59;5.05;;;2.15;;
36061;SDS011;22123;52.412;20.970;2023-03-22T10:10:35;6.93;;;2.72;;
36061;SDS011;22123;52.412;20.970;2023-03-22T10:15:32;5.18;;;2.78;;
36061;SDS011;22123;52.412;20.970;2023-03-22T10:18:03;5.20;;;2.47;;
36061;SDS011;22123;52.412;20.970;2023-03-22T10:23:38;2.95;;;1.70;;
36061;SDS011;22123;52.412;20.970;2023-03-22T10:26:06;2.00;;;1.80;;
36061;SDS011;22123;52.412;20.970;2023-03-22T10:28:42;4.75;;;2.50;;
36061;SDS011;22123;52.412;20.970;2023-03-22T10:31:12;3.20;;;2.03;;
36061;SDS011;22123;52.412;20.970;2023-03-22T10:33:41;9.07;;;2.17;;
36061;SDS011;22123;52.412;20.970;2023-03-22T10:36:17;7.18;;;2.22;;
36061;SDS011;22123;52.412;20.970;2023-03-22T10:38:48;5.00;;;1.70;;
36061;SDS011;22123;52.412;20.970;2023-03-22T10:41:17;2.85;;;1.33;;
36061;SDS011;22123;52.412;20.970;2023-03-22T10:43:48;3.97;;;1.85;;
36061;SDS011;22123;52.412;20.970;2023-03-22T10:46:18;2.80;;;1.67;;
36061;SDS011;22123;52.412;20.970;2023-03-22T10:48:48;3.75;;;1.75;;
36061;SDS011;22123;52.412;20.970;2023-03-22T10:51:31;3.40;;;1.00;;
36061;SDS011;22123;52.412;20.970;2023-03-22T10:54:09;2.50;;;1.35;;
36061;SDS011;22123;52.412;20.970;2023-03-22T10:56:37;3.38;;;1.55;;
36061;SDS011;22123;52.412;20.970;2023-03-22T10:59:03;5.78;;;2.35;;
36061;SDS011;22123;52.412;20.970;2023-03-22T11:01:34;3.17;;;1.23;;
36061;SDS011;22123;52.412;20.970;2023-03-22T11:04:12;4.00;;;1.70;;
36061;SDS011;22123;52.412;20.970;2023-03-22T11:06:42;2.72;;;1.40;;
36061;SDS011;22123;52.412;20.970;2023-03-22T11:09:18;5.65;;;2.72;;
36061;SDS011;22123;52.412;20.970;2023-03-22T11:14:19;2.40;;;1.98;;
36061;SDS011;22123;52.412;20.970;2023-03-22T11:17:06;3.17;;;1.83;;
36061;SDS011;22123;52.412;20.970;2023-03-22T11:19:35;4.68;;;1.92;;
36061;SDS011;22123;52.412;20.970;2023-03-22T11:22:05;3.80;;;2.28;;
36061;SDS011;22123;52.412;20.970;2023-03-22T11:24:46;5.93;;;2.22;;
36061;SDS011;22123;52.412;20.970;2023-03-22T11:27:19;2.92;;;2.08;;
36061;SDS011;22123;52.412;20.970;2023-03-22T11:29:49;6.75;;;2.97;;
36061;SDS011;22123;52.412;20.970;2023-03-22T11:32:26;5.22;;;2.13;;
36061;SDS011;22123;52.412;20.970;2023-03-22T11:35:28;1.92;;;1.45;;
36061;SDS011;22123;52.412;20.970;2023-03-22T11:37:49;2.22;;;1.38;;
36061;SDS011;22123;52.412;20.970;2023-03-22T11:40:21;1.40;;;0.90;;
36061;SDS011;22123;52.412;20.970;2023-03-22T11:42:52;3.53;;;1.17;;
36061;SDS011;22123;52.412;20.970;2023-03-22T11:45:24;3.35;;;1.75;;
36061;SDS011;22123;52.412;20.970;2023-03-22T11:48:16;5.68;;;1.88;;
36061;SDS011;22123;52.412;20.970;2023-03-22T11:50:47;2.42;;;1.42;;
36061;SDS011;22123;52.412;20.970;2023-03-22T11:53:18;2.30;;;1.27;;
36061;SDS011;22123;52.412;20.970;2023-03-22T11:55:48;2.50;;;1.70;;
36061;SDS011;22123;52.412;20.970;2023-03-22T11:58:26;5.05;;;1.60;;
36061;SDS011;22123;52.412;20.970;2023-03-22T12:01:01;3.42;;;2.08;;
36061;SDS011;22123;52.412;20.970;2023-03-22T12:03:30;8.85;;;1.77;;
36061;SDS011;22123;52.412;20.970;2023-03-22T12:06:03;2.63;;;1.20;;
36061;SDS011;22123;52.412;20.970;2023-03-22T12:08:56;3.20;;;1.90;;
36061;SDS011;22123;52.412;20.970;2023-03-22T12:14:00;3.85;;;2.38;;
36061;SDS011;22123;52.412;20.970;2023-03-22T12:16:39;2.50;;;1.48;;
36061;SDS011;22123;52.412;20.970;2023-03-22T12:22:15;4.95;;;1.83;;
36061;SDS011;22123;52.412;20.970;2023-03-22T12:24:44;2.33;;;1.63;;
36061;SDS011;22123;52.412;20.970;2023-03-22T12:27:18;4.22;;;1.98;;
36061;SDS011;22123;52.412;20.970;2023-03-22T12:29:46;7.70;;;2.75;;
36061;SDS011;22123;52.412;20.970;2023-03-22T12:32:47;5.05;;;1.75;;
36061;SDS011;22123;52.412;20.970;2023-03-22T12:35:23;1.90;;;0.98;;
36061;SDS011;22123;52.412;20.970;2023-03-22T12:37:54;4.90;;;2.58;;
36061;SDS011;22123;52.412;20.970;2023-03-22T12:40:26;4.13;;;1.48;;
36061;SDS011;22123;52.412;20.970;2023-03-22T12:45:44;4.03;;;2.00;;
36061;SDS011;22123;52.412;20.970;2023-03-22T12:48:18;3.45;;;1.42;;
36061;SDS011;22123;52.412;20.970;2023-03-22T12:50:59;4.10;;;2.10;;
36061;SDS011;22123;52.412;20.970;2023-03-22T12:53:35;4.93;;;2.17;;
36061;SDS011;22123;52.412;20.970;2023-03-22T12:56:05;1.98;;;1.05;;
36061;SDS011;22123;52.412;20.970;2023-03-22T12:58:31;4.65;;;2.08;;
36061;SDS011;22123;52.412;20.970;2023-03-22T13:00:58;2.42;;;1.40;;
36061;SDS011;22123;52.412;20.970;2023-03-22T13:03:38;2.25;;;1.60;;
36061;SDS011;22123;52.412;20.970;2023-03-22T13:09:10;4.07;;;1.95;;
36061;SDS011;22123;52.412;20.970;2023-03-22T13:11:42;4.05;;;2.15;;
36061;SDS011;22123;52.412;20.970;2023-03-22T13:14:11;2.28;;;1.73;;
36061;SDS011;22123;52.412;20.970;2023-03-22T13:16:49;3.05;;;1.33;;
36061;SDS011;22123;52.412;20.970;2023-03-22T13:19:54;5.95;;;2.08;;
36061;SDS011;22123;52.412;20.970;2023-03-22T13:22:20;5.75;;;1.83;;
36061;SDS011;22123;52.412;20.970;2023-03-22T13:24:59;4.00;;;2.25;;
36061;SDS011;22123;52.412;20.970;2023-03-22T13:27:53;2.90;;;1.88;;
36061;SDS011;22123;52.412;20.970;2023-03-22T13:32:53;2.30;;;1.25;;
36061;SDS011;22123;52.412;20.970;2023-03-22T13:35:23;4.40;;;1.38;;
36061;SDS011;22123;52.412;20.970;2023-03-22T13:37:51;2.90;;;1.88;;
36061;SDS011;22123;52.412;20.970;2023-03-22T13:40:27;4.07;;;1.67;;
36061;SDS011;22123;52.412;20.970;2023-03-22T13:45:56;3.38;;;1.63;;
36061;SDS011;22123;52.412;20.970;2023-03-22T13:48:28;5.50;;;1.65;;
36061;SDS011;22123;52.412;20.970;2023-03-22T13:50:56;6.95;;;2.00;;
36061;SDS011;22123;52.412;20.970;2023-03-22T13:53:26;2.78;;;1.67;;
36061;SDS011;22123;52.412;20.970;2023-03-22T14:01:15;6.50;;;1.45;;
36061;SDS011;22123;52.412;20.970;2023-03-22T14:03:50;2.45;;;2.10;;
36061;SDS011;22123;52.412;20.970;2023-03-22T14:06:21;2.95;;;1.50;;
36061;SDS011;22123;52.412;20.970;2023-03-22T14:08:50;3.10;;;2.20;;
36061;SDS011;22123;52.412;20.970;2023-03-22T14:11:23;3.38;;;1.60;;
36061;SDS011;22123;52.412;20.970;2023-03-22T14:13:52;3.55;;;2.20;;
36061;SDS011;22123;52.412;20.970;2023-03-22T14:19:01;3.75;;;1.83;;
36061;SDS011;22123;52.412;20.970;2023-03-22T14:21:40;2.38;;;1.55;;
36061;SDS011;22123;52.412;20.970;2023-03-22T14:24:12;1.55;;;0.95;;
36061;SDS011;22123;52.412;20.970;2023-03-22T14:26:41;2.97;;;1.75;;
36061;SDS011;22123;52.412;20.970;2023-03-22T14:29:13;2.88;;;1.58;;
36061;SDS011;22123;52.412;20.970;2023-03-22T14:31:39;3.47;;;1.30;;
36061;SDS011;22123;52.412;20.970;2023-03-22T14:34:06;0.90;;;0.80;;
36061;SDS011;22123;52.412;20.970;2023-03-22T14:36:37;8.85;;;1.70;;
36061;SDS011;22123;52.412;20.970;2023-03-22T14:39:10;3.53;;;2.47;;
36061;SDS011;22123;52.412;20.970;2023-03-22T14:42:27;2.38;;;1.52;;
36061;SDS011;22123;52.412;20.970;2023-03-22T14:44:44;3.20;;;2.00;;
36061;SDS011;22123;52.412;20.970;2023-03-22T14:47:15;2.03;;;1.58;;
36061;SDS011;22123;52.412;20.970;2023-03-22T14:49:45;7.03;;;2.85;;
36061;SDS011;22123;52.412;20.970;2023-03-22T14:52:14;4.88;;;2.15;;
36061;SDS011;22123;52.412;20.970;2023-03-22T14:54:46;3.70;;;1.60;;
36061;SDS011;22123;52.412;20.970;2023-03-22T14:57:14;0.98;;;0.82;;
36061;SDS011;22123;52.412;20.970;2023-03-22T14:59:42;5.30;;;1.70;;
36061;SDS011;22123;52.412;20.970;2023-03-22T15:02:16;2.33;;;1.25;;
36061;SDS011;22123;52.412;20.970;2023-03-22T15:04:48;2.47;;;1.67;;
36061;SDS011;22123;52.412;20.970;2023-03-22T15:07:16;5.97;;;1.80;;
36061;SDS011;22123;52.412;20.970;2023-03-22T15:09:43;2.53;;;1.63;;
36061;SDS011;22123;52.412;20.970;2023-03-22T15:12:09;7.90;;;1.83;;
36061;SDS011;22123;52.412;20.970;2023-03-22T15:14:36;2.17;;;1.13;;
36061;SDS011;22123;52.412;20.970;2023-03-22T15:17:04;2.05;;;1.38;;
36061;SDS011;22123;52.412;20.970;2023-03-22T15:19:33;5.93;;;1.67;;
36061;SDS011;22123;52.412;20.970;2023-03-22T15:22:11;3.45;;;1.40;;
36061;SDS011;22123;52.412;20.970;2023-03-22T15:24:47;2.95;;;1.88;;
36061;SDS011;22123;52.412;20.970;2023-03-22T15:27:18;2.58;;;1.35;;
36061;SDS011;22123;52.412;20.970;2023-03-22T15:29:45;2.65;;;1.63;;
36061;SDS011;22123;52.412;20.970;2023-03-22T15:32:16;3.42;;;1.70;;
36061;SDS011;22123;52.412;20.970;2023-03-22T15:34:45;2.03;;;1.45;;
36061;SDS011;22123;52.412;20.970;2023-03-22T15:37:27;2.10;;;1.48;;
36061;SDS011;22123;52.412;20.970;2023-03-22T15:39:55;3.22;;;1.83;;
36061;SDS011;22123;52.412;20.970;2023-03-22T15:47:44;4.22;;;1.80;;
36061;SDS011;22123;52.412;20.970;2023-03-22T15:50:16;1.42;;;0.88;;
36061;SDS011;22123;52.412;20.970;2023-03-22T15:52:49;2.63;;;1.48;;
36061;SDS011;22123;52.412;20.970;2023-03-22T15:55:27;2.90;;;1.70;;
36061;SDS011;22123;52.412;20.970;2023-03-22T15:57:57;4.93;;;1.77;;
36061;SDS011;22123;52.412;20.970;2023-03-22T16:00:28;3.97;;;1.95;;
36061;SDS011;22123;52.412;20.970;2023-03-22T16:05:31;1.70;;;1.38;;
36061;SDS011;22123;52.412;20.970;2023-03-22T16:07:57;3.03;;;1.42;;
36061;SDS011;22123;52.412;20.970;2023-03-22T16:10:23;6.20;;;1.52;;
36061;SDS011;22123;52.412;20.970;2023-03-22T16:12:51;2.72;;;1.55;;